MSC Jordan — HPMK — position and weather

sailwx.info

Track history (hours):
 
Tides and Currents Weather Stations Pressure Air Temp Water Temp Dewpoint Dewpoint Depression Visibility Wind Speed Wind Dir Waves Ship Positions

MSC Jordan

Last reported at 2017-Mar-23 09:33 UTC. Time now 2017-Mar-30 18:34 UTC.
Position N 08°44' W 015°21'.

Length 237 m; draft 10.9 m.

Type: Ship. MMSI: 355194000.

Date/timePositionNaut miles runAvg speedWind from/ knotsBaromVisibWave heightAir tempDewpointWater temp
2017-Mar-23 09:33N 08°44' W 015°21'5518.4
2017-Mar-23 06:33N 09°23' W 016°01'1818.6
2017-Mar-23 05:33N 09°38' W 016°11'1818.2
2017-Mar-23 04:34N 09°54' W 016°21'28617.7
2017-Mar-22 12:21N 14°34' W 017°24'8 5.9
2017-Mar-22 11:03N 14°41' W 017°26'0 0.0
2017-Mar-22 10:33N 14°41' W 017°26'0 0.0
2017-Mar-22 09:30N 14°41' W 017°26'0 0.0
2017-Mar-22 08:33N 14°41' W 017°26'0 0.0
2017-Mar-22 07:33N 14°41' W 017°26'0 0.0
2017-Mar-22 06:24N 14°41' W 017°26'0 0.0
2017-Mar-22 05:33N 14°41' W 017°26'0 0.1
2017-Mar-22 04:33N 14°41' W 017°26'4 4.3
2017-Mar-22 03:33N 14°41' W 017°21'2 2.1
2017-Mar-22 02:33N 14°40' W 017°19'0 0.4
2017-Mar-22 01:31N 14°39' W 017°19'0 0.0
2017-Mar-22 00:19N 14°39' W 017°19'0 0.0
2017-Mar-21 23:31N 14°39' W 017°19'0 0.0
2017-Mar-21 22:04N 14°39' W 017°19'0 0.0
2017-Mar-21 21:31N 14°39' W 017°19'0 0.0
2017-Mar-21 20:22N 14°39' W 017°19'0 0.0
2017-Mar-21 19:31N 14°39' W 017°19'0 0.0
2017-Mar-21 18:19N 14°39' W 017°19'0 0.0
2017-Mar-21 17:25N 14°39' W 017°19'0 0.0
2017-Mar-21 16:25N 14°39' W 017°19'0 0.0
2017-Mar-21 15:25N 14°39' W 017°19'0 0.0
2017-Mar-21 14:28N 14°39' W 017°19'0 0.0
2017-Mar-21 13:31N 14°39' W 017°19'0 0.0
2017-Mar-21 12:31N 14°39' W 017°19'0 0.0
2017-Mar-21 11:25N 14°39' W 017°19'0 0.0
2017-Mar-21 10:31N 14°39' W 017°19'0 0.0
2017-Mar-21 09:31N 14°39' W 017°19'0 0.0
2017-Mar-21 08:31N 14°39' W 017°19'0 0.0
2017-Mar-21 07:31N 14°39' W 017°19'0 0.0
2017-Mar-21 06:31N 14°39' W 017°19'0 0.0
2017-Mar-21 05:31N 14°39' W 017°19'0 0.0
2017-Mar-21 04:31N 14°39' W 017°19'0 0.0
2017-Mar-21 03:19N 14°39' W 017°19'0 0.0
2017-Mar-21 02:31N 14°39' W 017°19'0 0.0
2017-Mar-21 01:31N 14°39' W 017°19'0 0.0
2017-Mar-21 00:25N 14°39' W 017°19'0 0.0
2017-Mar-20 23:25N 14°39' W 017°19'0 0.0
2017-Mar-20 22:28N 14°39' W 017°19'0 0.0
2017-Mar-20 21:31N 14°39' W 017°19'0 0.0
2017-Mar-20 20:31N 14°39' W 017°19'0 0.0
2017-Mar-20 19:31N 14°39' W 017°19'0 0.0
2017-Mar-20 18:31N 14°39' W 017°19'0 0.0
2017-Mar-20 17:31N 14°39' W 017°19'0 0.0
2017-Mar-20 16:31N 14°39' W 017°19'0 0.0
2017-Mar-20 15:31N 14°39' W 017°19'0 0.0
2017-Mar-20 14:31N 14°39' W 017°19'0 0.0
2017-Mar-20 13:28N 14°39' W 017°19'0 0.0
2017-Mar-20 12:28N 14°39' W 017°19'0 0.0
2017-Mar-20 11:31N 14°39' W 017°19'0 0.0
2017-Mar-20 10:31N 14°39' W 017°19'0 0.1
2017-Mar-20 09:31N 14°39' W 017°19'0 0.1
2017-Mar-20 08:31N 14°39' W 017°19'0 0.0
2017-Mar-20 06:25N 14°39' W 017°19'0 0.0
2017-Mar-20 03:31N 14°39' W 017°19'0 0.0
2017-Mar-20 02:31N 14°39' W 017°19'0 0.0
2017-Mar-20 00:28N 14°39' W 017°19'0 0.0
2017-Mar-19 23:22N 14°39' W 017°19'0 0.0
2017-Mar-19 22:31N 14°39' W 017°19'0 0.0
2017-Mar-19 21:28N 14°39' W 017°19'0 0.0
2017-Mar-19 19:28N 14°39' W 017°19'0 0.0
2017-Mar-19 18:31N 14°39' W 017°19'0 0.0
2017-Mar-19 17:31N 14°39' W 017°19'0 0.0
2017-Mar-19 16:25N 14°39' W 017°19'0 0.0
2017-Mar-19 15:28N 14°39' W 017°19'1 1.0
2017-Mar-19 14:32N 14°40' W 017°19'6 6.3
2017-Mar-19 13:34N 14°41' W 017°26'0 0.0
2017-Mar-19 12:33N 14°41' W 017°26'6 6.5
2017-Mar-19 11:34N 14°40' W 017°19'1 0.5
2017-Mar-19 10:20N 14°40' W 017°19'1 1.2
2017-Mar-19 09:33N 14°41' W 017°20'1 0.6
2017-Mar-19 08:33N 14°41' W 017°21'2 1.5
2017-Mar-19 07:34N 14°40' W 017°19'1 0.9
2017-Mar-19 06:23N 14°39' W 017°19'0 0.0
2017-Mar-19 05:32N 14°39' W 017°19'0 0.0
2017-Mar-19 04:29N 14°39' W 017°19'0 0.0
2017-Mar-19 03:29N 14°39' W 017°19'0 0.0
2017-Mar-19 02:20N 14°39' W 017°19'0 0.0
2017-Mar-19 01:29N 14°39' W 017°19'0 0.0
2017-Mar-19 00:32N 14°39' W 017°19'0 0.0
2017-Mar-18 23:23N 14°39' W 017°19'0 0.0
2017-Mar-18 21:29N 14°39' W 017°19'0 0.0
2017-Mar-18 20:32N 14°39' W 017°19'0 0.0
2017-Mar-18 19:32N 14°39' W 017°19'0 0.0
2017-Mar-18 18:32N 14°39' W 017°19'0 0.0
2017-Mar-18 17:26N 14°39' W 017°19'0 0.0
2017-Mar-18 16:29N 14°39' W 017°19'0 0.0
2017-Mar-18 15:23N 14°39' W 017°19'0 0.0
2017-Mar-18 14:29N 14°39' W 017°19'0 0.0
2017-Mar-18 13:29N 14°39' W 017°19'0 0.0
2017-Mar-18 12:32N 14°39' W 017°19'0 0.0
2017-Mar-18 11:29N 14°39' W 017°19'0 0.0
2017-Mar-18 10:29N 14°39' W 017°19'0 0.0
2017-Mar-18 09:23N 14°39' W 017°19'0 0.0
2017-Mar-18 08:32N 14°39' W 017°19'0 0.0
2017-Mar-18 06:32N 14°39' W 017°19'0 0.0
2017-Mar-18 05:32N 14°39' W 017°19'0 0.0
2017-Mar-18 04:32N 14°39' W 017°19'0 0.0
2017-Mar-18 03:29N 14°39' W 017°19'0 0.0
2017-Mar-18 02:29N 14°39' W 017°19'0 0.0
2017-Mar-18 01:29N 14°39' W 017°19'0 0.0
2017-Mar-18 00:32N 14°39' W 017°19'0 0.0
2017-Mar-17 22:29N 14°39' W 017°19'0 0.0
2017-Mar-17 21:29N 14°39' W 017°19'0 0.0
2017-Mar-17 20:32N 14°39' W 017°19'0 0.0
2017-Mar-17 19:29N 14°39' W 017°19'0 0.0
2017-Mar-17 18:29N 14°39' W 017°19'0 0.0
2017-Mar-17 17:29N 14°39' W 017°19'0 0.0
2017-Mar-17 16:32N 14°39' W 017°19'0 0.0
2017-Mar-17 15:32N 14°39' W 017°19'0 0.0
2017-Mar-17 14:29N 14°39' W 017°19'0 0.0
2017-Mar-17 13:17N 14°39' W 017°19'0 0.0
2017-Mar-17 12:23N 14°39' W 017°19'0 0.0
2017-Mar-17 11:26N 14°39' W 017°19'0 0.0
2017-Mar-17 10:32N 14°39' W 017°19'0 0.0
2017-Mar-17 09:29N 14°39' W 017°19'0 0.0
2017-Mar-17 08:29N 14°39' W 017°19'0 0.0
2017-Mar-17 07:17N 14°39' W 017°19'0 0.0
2017-Mar-17 06:32N 14°39' W 017°19'0 0.0
2017-Mar-17 05:29N 14°39' W 017°19'0 0.0
2017-Mar-17 04:32N 14°39' W 017°19'0 0.0
2017-Mar-17 03:32N 14°39' W 017°19'0 0.0
2017-Mar-17 02:32N 14°39' W 017°19'0 0.0
2017-Mar-17 01:32N 14°39' W 017°19'0 0.0
2017-Mar-17 00:32N 14°39' W 017°19'0 0.0
2017-Mar-16 23:29N 14°39' W 017°19'0 0.0
2017-Mar-16 21:20N 14°39' W 017°19'0 0.0
2017-Mar-16 20:29N 14°39' W 017°19'0 0.0
2017-Mar-16 19:26N 14°39' W 017°19'0 0.0
2017-Mar-16 18:32N 14°39' W 017°19'0 0.0
2017-Mar-16 17:23N 14°39' W 017°19'0 0.1
2017-Mar-16 16:32N 14°39' W 017°19'9 9.3
2017-Mar-16 15:31N 14°30' W 017°20'1414.9
2017-Mar-16 14:33N 14°16' W 017°22'1 0.6
2017-Mar-16 12:33N 14°16' W 017°23'1 1.3
2017-Mar-16 11:33N 14°18' W 017°23'1 1.3
2017-Mar-16 10:33N 14°19' W 017°24'1 1.2
2017-Mar-16 09:34N 14°20' W 017°25'1 1.2
2017-Mar-16 08:34N 14°21' W 017°25'2 1.1
2017-Mar-16 06:33N 14°22' W 017°27'1 1.2
2017-Mar-16 05:33N 14°23' W 017°28'1 0.9
2017-Mar-16 04:33N 14°23' W 017°29'5112.7
2017-Mar-16 00:33N 15°12' W 017°44'2215.4
2017-Mar-15 23:08N 15°34' W 017°45'11216.0
2017-Mar-15 16:08N 17°25' W 017°44'2516.0
2017-Mar-15 14:33N 17°51' W 017°43'61416.2
2017-Mar-14 00:33N 27°49' W 015°16'1514.8
2017-Mar-13 23:33N 28°04' W 015°20'6 5.9
2017-Mar-13 22:33N 28°08' W 015°25'0 0.0
2017-Mar-13 21:25N 28°08' W 015°25'0 0.0
2017-Mar-13 20:31N 28°08' W 015°25'0 0.0
2017-Mar-13 19:31N 28°08' W 015°25'0 0.0
2017-Mar-13 18:31N 28°08' W 015°25'0 0.0
2017-Mar-13 17:31N 28°08' W 015°25'0 0.0
2017-Mar-13 16:31N 28°08' W 015°25'0 0.0
2017-Mar-13 15:31N 28°08' W 015°25'0 0.0
2017-Mar-13 14:31N 28°08' W 015°25'0 0.0
2017-Mar-13 13:22N 28°08' W 015°25'0 0.0
2017-Mar-13 12:22N 28°08' W 015°25'0 0.0
2017-Mar-13 11:25N 28°08' W 015°25'0 0.0
2017-Mar-13 10:25N 28°08' W 015°25'  
Track history (hours):
 
Tides and Currents Weather Stations Pressure Air Temp Water Temp Dewpoint Dewpoint Depression Visibility Wind Speed Wind Dir Waves Ship Positions

MSC Jordan

Last reported at 2017-Mar-23 09:33 UTC. Time now 2017-Mar-30 18:34 UTC.
Position N 08°44' W 015°21'.

Length 237 m; draft 10.9 m.

Type: Ship. MMSI: 355194000.

Date/timePositionNaut miles runAvg speedWind from/ knotsBaromVisibWave heightAir tempDewpointWater temp
2017-Mar-23 09:33N 08°44' W 015°21'5518.4
2017-Mar-23 06:33N 09°23' W 016°01'1818.6
2017-Mar-23 05:33N 09°38' W 016°11'1818.2
2017-Mar-23 04:34N 09°54' W 016°21'28617.7
2017-Mar-22 12:21N 14°34' W 017°24'8 5.9
2017-Mar-22 11:03N 14°41' W 017°26'0 0.0
2017-Mar-22 10:33N 14°41' W 017°26'0 0.0
2017-Mar-22 09:30N 14°41' W 017°26'0 0.0
2017-Mar-22 08:33N 14°41' W 017°26'0 0.0
2017-Mar-22 07:33N 14°41' W 017°26'0 0.0
2017-Mar-22 06:24N 14°41' W 017°26'0 0.0
2017-Mar-22 05:33N 14°41' W 017°26'0 0.1
2017-Mar-22 04:33N 14°41' W 017°26'4 4.3
2017-Mar-22 03:33N 14°41' W 017°21'2 2.1
2017-Mar-22 02:33N 14°40' W 017°19'0 0.4
2017-Mar-22 01:31N 14°39' W 017°19'0 0.0
2017-Mar-22 00:19N 14°39' W 017°19'0 0.0
2017-Mar-21 23:31N 14°39' W 017°19'0 0.0
2017-Mar-21 22:04N 14°39' W 017°19'0 0.0
2017-Mar-21 21:31N 14°39' W 017°19'0 0.0
2017-Mar-21 20:22N 14°39' W 017°19'0 0.0
2017-Mar-21 19:31N 14°39' W 017°19'0 0.0
2017-Mar-21 18:19N 14°39' W 017°19'0 0.0
2017-Mar-21 17:25N 14°39' W 017°19'0 0.0
2017-Mar-21 16:25N 14°39' W 017°19'0 0.0
2017-Mar-21 15:25N 14°39' W 017°19'0 0.0
2017-Mar-21 14:28N 14°39' W 017°19'0 0.0
2017-Mar-21 13:31N 14°39' W 017°19'0 0.0
2017-Mar-21 12:31N 14°39' W 017°19'0 0.0
2017-Mar-21 11:25N 14°39' W 017°19'0 0.0
2017-Mar-21 10:31N 14°39' W 017°19'0 0.0
2017-Mar-21 09:31N 14°39' W 017°19'0 0.0
2017-Mar-21 08:31N 14°39' W 017°19'0 0.0
2017-Mar-21 07:31N 14°39' W 017°19'0 0.0
2017-Mar-21 06:31N 14°39' W 017°19'0 0.0
2017-Mar-21 05:31N 14°39' W 017°19'0 0.0
2017-Mar-21 04:31N 14°39' W 017°19'0 0.0
2017-Mar-21 03:19N 14°39' W 017°19'0 0.0
2017-Mar-21 02:31N 14°39' W 017°19'0 0.0
2017-Mar-21 01:31N 14°39' W 017°19'0 0.0
2017-Mar-21 00:25N 14°39' W 017°19'0 0.0
2017-Mar-20 23:25N 14°39' W 017°19'0 0.0
2017-Mar-20 22:28N 14°39' W 017°19'0 0.0
2017-Mar-20 21:31N 14°39' W 017°19'0 0.0
2017-Mar-20 20:31N 14°39' W 017°19'0 0.0
2017-Mar-20 19:31N 14°39' W 017°19'0 0.0
2017-Mar-20 18:31N 14°39' W 017°19'0 0.0
2017-Mar-20 17:31N 14°39' W 017°19'0 0.0
2017-Mar-20 16:31N 14°39' W 017°19'0 0.0
2017-Mar-20 15:31N 14°39' W 017°19'0 0.0
2017-Mar-20 14:31N 14°39' W 017°19'0 0.0
2017-Mar-20 13:28N 14°39' W 017°19'0 0.0
2017-Mar-20 12:28N 14°39' W 017°19'0 0.0
2017-Mar-20 11:31N 14°39' W 017°19'0 0.0
2017-Mar-20 10:31N 14°39' W 017°19'0 0.1
2017-Mar-20 09:31N 14°39' W 017°19'0 0.1
2017-Mar-20 08:31N 14°39' W 017°19'0 0.0
2017-Mar-20 06:25N 14°39' W 017°19'0 0.0
2017-Mar-20 03:31N 14°39' W 017°19'0 0.0
2017-Mar-20 02:31N 14°39' W 017°19'0 0.0
2017-Mar-20 00:28N 14°39' W 017°19'0 0.0
2017-Mar-19 23:22N 14°39' W 017°19'0 0.0
2017-Mar-19 22:31N 14°39' W 017°19'0 0.0
2017-Mar-19 21:28N 14°39' W 017°19'0 0.0
2017-Mar-19 19:28N 14°39' W 017°19'0 0.0
2017-Mar-19 18:31N 14°39' W 017°19'0 0.0
2017-Mar-19 17:31N 14°39' W 017°19'0 0.0
2017-Mar-19 16:25N 14°39' W 017°19'0 0.0
2017-Mar-19 15:28N 14°39' W 017°19'1 1.0
2017-Mar-19 14:32N 14°40' W 017°19'6 6.3
2017-Mar-19 13:34N 14°41' W 017°26'0 0.0
2017-Mar-19 12:33N 14°41' W 017°26'6 6.5
2017-Mar-19 11:34N 14°40' W 017°19'1 0.5
2017-Mar-19 10:20N 14°40' W 017°19'1 1.2
2017-Mar-19 09:33N 14°41' W 017°20'1 0.6
2017-Mar-19 08:33N 14°41' W 017°21'2 1.5
2017-Mar-19 07:34N 14°40' W 017°19'1 0.9
2017-Mar-19 06:23N 14°39' W 017°19'0 0.0
2017-Mar-19 05:32N 14°39' W 017°19'0 0.0
2017-Mar-19 04:29N 14°39' W 017°19'0 0.0
2017-Mar-19 03:29N 14°39' W 017°19'0 0.0
2017-Mar-19 02:20N 14°39' W 017°19'0 0.0
2017-Mar-19 01:29N 14°39' W 017°19'0 0.0
2017-Mar-19 00:32N 14°39' W 017°19'0 0.0
2017-Mar-18 23:23N 14°39' W 017°19'0 0.0
2017-Mar-18 21:29N 14°39' W 017°19'0 0.0
2017-Mar-18 20:32N 14°39' W 017°19'0 0.0
2017-Mar-18 19:32N 14°39' W 017°19'0 0.0
2017-Mar-18 18:32N 14°39' W 017°19'0 0.0
2017-Mar-18 17:26N 14°39' W 017°19'0 0.0
2017-Mar-18 16:29N 14°39' W 017°19'0 0.0
2017-Mar-18 15:23N 14°39' W 017°19'0 0.0
2017-Mar-18 14:29N 14°39' W 017°19'0 0.0
2017-Mar-18 13:29N 14°39' W 017°19'0 0.0
2017-Mar-18 12:32N 14°39' W 017°19'0 0.0
2017-Mar-18 11:29N 14°39' W 017°19'0 0.0
2017-Mar-18 10:29N 14°39' W 017°19'0 0.0
2017-Mar-18 09:23N 14°39' W 017°19'0 0.0
2017-Mar-18 08:32N 14°39' W 017°19'0 0.0
2017-Mar-18 06:32N 14°39' W 017°19'0 0.0
2017-Mar-18 05:32N 14°39' W 017°19'0 0.0
2017-Mar-18 04:32N 14°39' W 017°19'0 0.0
2017-Mar-18 03:29N 14°39' W 017°19'0 0.0
2017-Mar-18 02:29N 14°39' W 017°19'0 0.0
2017-Mar-18 01:29N 14°39' W 017°19'0 0.0
2017-Mar-18 00:32N 14°39' W 017°19'0 0.0
2017-Mar-17 22:29N 14°39' W 017°19'0 0.0
2017-Mar-17 21:29N 14°39' W 017°19'0 0.0
2017-Mar-17 20:32N 14°39' W 017°19'0 0.0
2017-Mar-17 19:29N 14°39' W 017°19'0 0.0
2017-Mar-17 18:29N 14°39' W 017°19'0 0.0
2017-Mar-17 17:29N 14°39' W 017°19'0 0.0
2017-Mar-17 16:32N 14°39' W 017°19'0 0.0
2017-Mar-17 15:32N 14°39' W 017°19'0 0.0
2017-Mar-17 14:29N 14°39' W 017°19'0 0.0
2017-Mar-17 13:17N 14°39' W 017°19'0 0.0
2017-Mar-17 12:23N 14°39' W 017°19'0 0.0
2017-Mar-17 11:26N 14°39' W 017°19'0 0.0
2017-Mar-17 10:32N 14°39' W 017°19'0 0.0
2017-Mar-17 09:29N 14°39' W 017°19'0 0.0
2017-Mar-17 08:29N 14°39' W 017°19'0 0.0
2017-Mar-17 07:17N 14°39' W 017°19'0 0.0
2017-Mar-17 06:32N 14°39' W 017°19'0 0.0
2017-Mar-17 05:29N 14°39' W 017°19'0 0.0
2017-Mar-17 04:32N 14°39' W 017°19'0 0.0
2017-Mar-17 03:32N 14°39' W 017°19'0 0.0
2017-Mar-17 02:32N 14°39' W 017°19'0 0.0
2017-Mar-17 01:32N 14°39' W 017°19'0 0.0
2017-Mar-17 00:32N 14°39' W 017°19'0 0.0
2017-Mar-16 23:29N 14°39' W 017°19'0 0.0
2017-Mar-16 21:20N 14°39' W 017°19'0 0.0
2017-Mar-16 20:29N 14°39' W 017°19'0 0.0
2017-Mar-16 19:26N 14°39' W 017°19'0 0.0
2017-Mar-16 18:32N 14°39' W 017°19'0 0.0
2017-Mar-16 17:23N 14°39' W 017°19'0 0.1
2017-Mar-16 16:32N 14°39' W 017°19'9 9.3
2017-Mar-16 15:31N 14°30' W 017°20'1414.9
2017-Mar-16 14:33N 14°16' W 017°22'1 0.6
2017-Mar-16 12:33N 14°16' W 017°23'1 1.3
2017-Mar-16 11:33N 14°18' W 017°23'1 1.3
2017-Mar-16 10:33N 14°19' W 017°24'1 1.2
2017-Mar-16 09:34N 14°20' W 017°25'1 1.2
2017-Mar-16 08:34N 14°21' W 017°25'2 1.1
2017-Mar-16 06:33N 14°22' W 017°27'1 1.2
2017-Mar-16 05:33N 14°23' W 017°28'1 0.9
2017-Mar-16 04:33N 14°23' W 017°29'5112.7
2017-Mar-16 00:33N 15°12' W 017°44'2215.4
2017-Mar-15 23:08N 15°34' W 017°45'11216.0
2017-Mar-15 16:08N 17°25' W 017°44'2516.0
2017-Mar-15 14:33N 17°51' W 017°43'61416.2
2017-Mar-14 00:33N 27°49' W 015°16'1514.8
2017-Mar-13 23:33N 28°04' W 015°20'6 5.9
2017-Mar-13 22:33N 28°08' W 015°25'0 0.0
2017-Mar-13 21:25N 28°08' W 015°25'0 0.0
2017-Mar-13 20:31N 28°08' W 015°25'0 0.0
2017-Mar-13 19:31N 28°08' W 015°25'0 0.0
2017-Mar-13 18:31N 28°08' W 015°25'0 0.0
2017-Mar-13 17:31N 28°08' W 015°25'0 0.0
2017-Mar-13 16:31N 28°08' W 015°25'0 0.0
2017-Mar-13 15:31N 28°08' W 015°25'0 0.0
2017-Mar-13 14:31N 28°08' W 015°25'0 0.0
2017-Mar-13 13:22N 28°08' W 015°25'0 0.0
2017-Mar-13 12:22N 28°08' W 015°25'0 0.0
2017-Mar-13 11:25N 28°08' W 015°25'0 0.0
2017-Mar-13 10:25N 28°08' W 015°25'  

Dump ship's entire track history